Time;durP1;ratioP1;P1;durP2;ratioP2;P2;SDS_P1;SDS_P2;PMS_P1;PMS_P2;Temp;Humidity;BMP_temperature;BMP_pressure;BME280_temperature;BME280_humidity;BME280_pressure;Samples;Min_cycle;Max_cycle;Signal;HPM_P1;HPM_P2
2021/03/07 00:00:23;;;;;;;9.27;8.37;;;6.10;18.70;;;;;;5052479;28;20225;-66
2021/03/07 00:02:50;;;;;;;9.63;8.83;;;6.20;18.50;;;;;;5052377;28;20877;-66
2021/03/07 00:05:16;;;;;;;10.40;9.30;;;6.20;18.50;;;;;;5052558;28;20457;-66
2021/03/07 00:07:43;;;;;;;9.13;8.30;;;6.10;18.60;;;;;;5052321;28;20402;-67
2021/03/07 00:10:11;;;;;;;10.00;8.97;;;5.90;19.10;;;;;;5061710;28;20479;-67
2021/03/07 00:12:37;;;;;;;12.63;9.50;;;5.80;19.20;;;;;;5072145;28;20411;-68
2021/03/07 00:15:04;;;;;;;10.57;9.67;;;5.90;19.50;;;;;;5052246;28;21157;-67
2021/03/07 00:17:30;;;;;;;9.60;8.80;;;6.00;19.40;;;;;;5050783;28;20186;-68
2021/03/07 00:19:55;;;;;;;10.93;9.83;;;5.90;20.30;;;;;;5054845;28;20797;-67
2021/03/07 00:22:21;;;;;;;11.90;9.30;;;5.70;20.00;;;;;;5072092;28;20685;-67
2021/03/07 00:24:47;;;;;;;10.73;9.70;;;5.30;20.10;;;;;;5072253;28;20172;-67
2021/03/07 00:27:12;;;;;;;9.63;8.07;;;5.30;21.00;;;;;;5072099;28;20167;-68
2021/03/07 00:29:38;;;;;;;10.13;9.13;;;5.60;21.70;;;;;;5072100;28;20249;-68
2021/03/07 00:32:04;;;;;;;11.07;9.97;;;5.80;21.10;;;;;;5071850;28;20284;-66
2021/03/07 00:34:29;;;;;;;11.00;10.00;;;5.30;21.00;;;;;;5062825;28;20189;-67
2021/03/07 00:36:55;;;;;;;13.27;10.10;;;5.30;21.00;;;;;;5051813;28;20593;-68
2021/03/07 00:39:20;;;;;;;12.90;11.13;;;5.70;20.60;;;;;;5051502;28;20199;-66
2021/03/07 00:41:46;;;;;;;11.93;10.03;;;5.60;20.30;;;;;;5051629;28;20335;-67
2021/03/07 00:44:12;;;;;;;12.37;11.07;;;5.60;20.50;;;;;;5051779;28;20188;-67
2021/03/07 00:46:42;;;;;;;13.20;11.60;;;5.40;21.10;;;;;;5050383;28;20180;-66
2021/03/07 00:49:08;;;;;;;13.03;11.70;;;5.60;21.00;;;;;;5051338;28;20423;-67
2021/03/07 00:51:34;;;;;;;9.80;8.80;;;5.70;20.90;;;;;;5051832;28;20980;-67
2021/03/07 00:54:00;;;;;;;12.27;9.87;;;5.70;20.60;;;;;;5048969;28;20172;-67
2021/03/07 00:56:25;;;;;;;10.00;9.00;;;5.80;20.50;;;;;;5051455;28;20837;-67
2021/03/07 00:58:51;;;;;;;11.43;9.50;;;5.70;20.10;;;;;;5051301;28;20163;-66
2021/03/07 01:01:16;;;;;;;10.77;9.77;;;5.60;20.40;;;;;;5051234;28;20199;-67
2021/03/07 01:03:43;;;;;;;9.60;8.77;;;5.70;20.40;;;;;;5051249;28;20286;-66
2021/03/07 01:06:08;;;;;;;9.40;8.43;;;5.70;20.60;;;;;;5051297;28;20172;-66
2021/03/07 01:08:34;;;;;;;10.73;9.73;;;5.70;20.60;;;;;;5050880;28;20462;-66
2021/03/07 01:11:00;;;;;;;10.80;9.70;;;5.60;21.00;;;;;;5051148;28;20188;-69
2021/03/07 01:13:25;;;;;;;9.93;9.00;;;5.50;20.70;;;;;;5051112;28;20179;-67
2021/03/07 01:15:51;;;;;;;10.60;8.33;;;5.50;21.10;;;;;;5051191;28;20472;-67
2021/03/07 01:18:17;;;;;;;11.90;9.50;;;5.50;20.50;;;;;;5050826;28;20310;-67
2021/03/07 01:20:44;;;;;;;10.37;9.17;;;5.50;21.60;;;;;;5050955;28;20202;-67
2021/03/07 01:23:12;;;;;;;10.10;9.20;;;5.40;20.90;;;;;;5050813;28;20199;-67
2021/03/07 01:25:38;;;;;;;11.00;9.97;;;5.30;21.00;;;;;;5050987;28;20448;-66
2021/03/07 01:28:05;;;;;;;10.30;9.30;;;5.10;20.90;;;;;;5050734;28;20403;-66
2021/03/07 01:30:33;;;;;;;9.23;8.33;;;5.00;21.60;;;;;;5051076;28;20199;-66
2021/03/07 01:32:59;;;;;;;10.77;9.77;;;4.80;22.00;;;;;;5051007;28;20933;-66
2021/03/07 01:35:25;;;;;;;10.10;9.20;;;4.70;22.20;;;;;;5050767;28;20410;-67
2021/03/07 01:37:50;;;;;;;11.17;9.50;;;4.70;22.20;;;;;;5050514;28;20229;-67
2021/03/07 01:40:22;;;;;;;10.07;9.00;;;5.00;22.60;;;;;;5050868;28;20546;-68
2021/03/07 01:42:52;;;;;;;12.23;11.03;;;5.20;22.10;;;;;;5050619;28;20196;-67
2021/03/07 01:45:22;;;;;;;10.67;9.63;;;5.00;22.00;;;;;;5050507;28;20421;-67
2021/03/07 01:47:53;;;;;;;12.13;9.13;;;4.90;22.30;;;;;;5050269;28;20407;-67
2021/03/07 01:50:25;;;;;;;10.37;9.37;;;4.80;22.40;;;;;;5050340;28;20441;-67
2021/03/07 01:52:51;;;;;;;11.33;10.20;;;4.70;22.90;;;;;;5050533;28;20419;-66
2021/03/07 01:55:19;;;;;;;12.30;11.10;;;4.80;23.00;;;;;;5048966;28;20421;-66
2021/03/07 01:57:47;;;;;;;11.97;10.23;;;4.70;23.30;;;;;;5050254;28;20180;-66
2021/03/07 02:00:14;;;;;;;11.13;9.33;;;4.80;23.30;;;;;;5050278;28;20494;-66
2021/03/07 02:02:40;;;;;;;11.30;10.20;;;4.70;23.30;;;;;;5050071;28;20464;-66
2021/03/07 02:05:10;;;;;;;9.80;8.93;;;4.60;23.60;;;;;;5048461;28;20410;-66
2021/03/07 02:07:38;;;;;;;11.10;10.00;;;4.10;24.10;;;;;;5055806;28;20174;-66
2021/03/07 02:10:05;;;;;;;11.37;9.17;;;4.00;24.40;;;;;;5069818;28;20402;-67
2021/03/07 02:12:33;;;;;;;10.30;8.47;;;3.90;24.80;;;;;;5064323;28;20410;-67
2021/03/07 02:15:00;;;;;;;10.03;9.03;;;4.20;25.00;;;;;;5049786;28;20497;-66
2021/03/07 02:17:26;;;;;;;11.60;9.67;;;4.50;24.50;;;;;;5062183;28;20901;-67
2021/03/07 02:19:52;;;;;;;10.30;9.30;;;4.70;24.50;;;;;;5069933;28;20421;-67
2021/03/07 02:22:33;;;;;;;10.57;9.47;;;4.80;23.70;;;;;;5069665;28;20252;-66
2021/03/07 02:24:59;;;;;;;9.23;8.33;;;4.80;24.00;;;;;;5069680;28;20402;-66
2021/03/07 02:27:26;;;;;;;9.77;8.83;;;5.00;23.60;;;;;;5068238;28;20555;-67
2021/03/07 02:29:52;;;;;;;9.90;8.40;;;5.20;22.70;;;;;;5067328;28;20404;-68
2021/03/07 02:32:22;;;;;;;9.50;8.60;;;5.40;22.90;;;;;;5049832;28;21026;-68
2021/03/07 02:35:22;;;;;;;8.50;7.70;;;5.60;22.10;;;;;;5048764;28;20787;-67
2021/03/07 02:37:53;;;;;;;7.53;6.80;;;5.50;21.50;;;;;;5035380;28;20471;-66
2021/03/07 02:40:22;;;;;;;9.30;8.50;;;5.50;21.10;;;;;;5049676;28;20458;-66
2021/03/07 02:42:49;;;;;;;8.23;7.30;;;5.40;21.10;;;;;;5049741;28;20484;-66
2021/03/07 02:45:20;;;;;;;8.10;7.33;;;4.80;21.20;;;;;;5049649;28;20407;-66
2021/03/07 02:47:49;;;;;;;7.73;7.03;;;4.30;21.90;;;;;;5049323;28;20423;-65
2021/03/07 02:50:25;;;;;;;8.57;7.67;;;3.90;22.60;;;;;;5049337;28;20422;-66
2021/03/07 02:52:56;;;;;;;10.43;9.50;;;3.80;23.00;;;;;;5049393;28;20402;-66
2021/03/07 02:55:26;;;;;;;10.03;9.03;;;4.20;25.30;;;;;;5049546;28;20488;-66
2021/03/07 02:57:54;;;;;;;9.50;8.60;;;4.50;25.10;;;;;;5049020;28;20414;-66
2021/03/07 03:00:19;;;;;;;9.87;8.87;;;4.60;24.50;;;;;;5049255;28;20434;-67
2021/03/07 03:02:46;;;;;;;10.63;9.53;;;4.80;23.50;;;;;;5049116;28;21102;-68
2021/03/07 03:05:13;;;;;;;9.90;8.67;;;4.90;23.20;;;;;;5049218;28;20414;-67
2021/03/07 03:07:40;;;;;;;10.00;9.00;;;5.00;23.30;;;;;;5049226;28;20852;-67
2021/03/07 03:10:08;;;;;;;12.23;9.17;;;4.80;23.60;;;;;;5049044;28;20936;-66
2021/03/07 03:12:36;;;;;;;10.30;8.70;;;4.80;23.60;;;;;;5048914;28;20414;-67
2021/03/07 03:15:05;;;;;;;8.07;7.47;;;4.80;23.60;;;;;;5049081;28;20426;-66
2021/03/07 03:17:32;;;;;;;9.43;8.53;;;4.70;23.50;;;;;;5047919;28;20425;-67
2021/03/07 03:19:58;;;;;;;9.13;8.33;;;4.60;23.30;;;;;;5048934;28;21101;-66
2021/03/07 03:22:24;;;;;;;8.90;8.00;;;4.60;23.70;;;;;;5048882;28;20453;-66
2021/03/07 03:24:49;;;;;;;8.90;8.10;;;4.50;23.60;;;;;;5048946;28;20498;-67
2021/03/07 03:27:16;;;;;;;8.90;7.03;;;4.40;23.20;;;;;;5049065;28;20497;-67
2021/03/07 03:29:42;;;;;;;8.83;8.03;;;4.30;23.10;;;;;;5047772;28;20179;-67
2021/03/07 03:32:09;;;;;;;8.50;7.73;;;4.30;23.20;;;;;;5048895;28;20434;-67
2021/03/07 03:34:35;;;;;;;9.27;7.93;;;4.30;23.20;;;;;;5048776;28;20226;-67
2021/03/07 03:37:01;;;;;;;8.63;7.67;;;4.20;24.10;;;;;;5048763;28;20501;-68
2021/03/07 03:39:28;;;;;;;9.47;8.00;;;4.40;24.40;;;;;;5048557;28;20517;-68
2021/03/07 03:42:07;;;;;;;9.10;7.90;;;4.40;23.60;;;;;;5048667;28;20590;-66
2021/03/07 03:44:38;;;;;;;7.83;7.00;;;4.40;23.70;;;;;;5047470;28;20410;-66
2021/03/07 03:47:09;;;;;;;9.50;7.80;;;4.40;23.70;;;;;;5048870;28;20780;-67
2021/03/07 03:49:43;;;;;;;8.93;8.10;;;4.30;23.90;;;;;;5049085;28;20411;-68
2021/03/07 03:52:10;;;;;;;8.40;7.60;;;4.30;24.40;;;;;;5048769;28;20429;-68
2021/03/07 03:54:47;;;;;;;9.47;8.00;;;4.30;24.50;;;;;;5048700;28;20414;-67
2021/03/07 03:57:16;;;;;;;9.93;8.93;;;4.30;24.40;;;;;;5048434;28;20453;-66
2021/03/07 03:59:44;;;;;;;9.47;8.50;;;4.20;25.20;;;;;;5048480;28;20458;-67
2021/03/07 04:02:11;;;;;;;10.27;9.23;;;4.30;24.80;;;;;;5048450;28;20508;-67
2021/03/07 04:04:38;;;;;;;9.03;8.20;;;4.30;25.70;;;;;;5048500;28;20414;-67
2021/03/07 04:07:05;;;;;;;9.07;8.23;;;4.20;24.70;;;;;;5048315;28;20438;-66
2021/03/07 04:09:30;;;;;;;9.73;8.73;;;4.20;25.10;;;;;;5048418;28;20414;-67
2021/03/07 04:11:57;;;;;;;10.57;9.47;;;4.10;25.00;;;;;;5048437;28;20905;-67
2021/03/07 04:14:24;;;;;;;9.93;8.53;;;4.20;25.60;;;;;;5048562;28;20246;-67
2021/03/07 04:16:51;;;;;;;10.13;9.17;;;4.40;24.80;;;;;;5048567;28;20769;-67
2021/03/07 04:19:17;;;;;;;10.30;9.20;;;4.40;24.50;;;;;;5048313;28;20418;-67
2021/03/07 04:21:44;;;;;;;10.57;9.57;;;4.20;24.80;;;;;;5048227;28;20476;-67
2021/03/07 04:24:10;;;;;;;12.17;9.30;;;4.10;24.80;;;;;;5048378;28;20450;-67
2021/03/07 04:26:36;;;;;;;10.37;9.33;;;3.90;25.10;;;;;;5049003;28;20419;-66
2021/03/07 04:29:03;;;;;;;9.50;8.50;;;3.60;26.00;;;;;;5051240;28;20485;-66
2021/03/07 04:31:29;;;;;;;8.80;8.00;;;3.40;26.10;;;;;;5053949;28;20626;-67
2021/03/07 04:33:55;;;;;;;9.87;7.70;;;3.40;26.00;;;;;;5053775;28;20407;-65
2021/03/07 04:36:21;;;;;;;9.30;7.30;;;3.60;26.20;;;;;;5053690;28;20772;-67
2021/03/07 04:38:46;;;;;;;8.43;7.63;;;4.10;25.90;;;;;;5053283;28;20196;-66
2021/03/07 04:41:12;;;;;;;9.53;7.90;;;4.40;23.90;;;;;;5053413;28;20800;-67
2021/03/07 04:43:53;;;;;;;8.30;7.50;;;3.90;24.20;;;;;;5053488;28;20215;-67
2021/03/07 04:46:24;;;;;;;8.33;7.63;;;3.50;25.40;;;;;;5053474;28;20203;-66
2021/03/07 04:48:52;;;;;;;8.03;7.30;;;3.70;25.20;;;;;;5053233;28;20482;-66
2021/03/07 04:51:18;;;;;;;8.00;7.20;;;3.90;24.60;;;;;;5053050;28;20431;-67
2021/03/07 04:53:44;;;;;;;7.43;6.33;;;3.50;25.20;;;;;;5053279;28;20774;-65
2021/03/07 04:56:10;;;;;;;8.93;8.03;;;3.30;25.70;;;;;;5053141;28;20505;-66
2021/03/07 04:58:36;;;;;;;8.60;7.73;;;3.50;26.30;;;;;;5051717;28;20211;-66
2021/03/07 05:01:03;;;;;;;9.60;8.40;;;3.70;26.10;;;;;;5053020;28;20204;-66
2021/03/07 05:03:29;;;;;;;9.03;7.40;;;4.10;25.40;;;;;;5052971;28;20874;-66
2021/03/07 05:05:55;;;;;;;7.90;7.20;;;4.20;24.40;;;;;;5052893;28;20406;-67
2021/03/07 05:08:20;;;;;;;8.40;7.70;;;4.10;24.60;;;;;;5052870;28;21088;-66
2021/03/07 05:10:46;;;;;;;8.30;7.27;;;4.20;24.40;;;;;;5052892;28;20283;-66
2021/03/07 05:13:12;;;;;;;8.30;7.33;;;4.20;24.50;;;;;;5052966;28;20183;-66
2021/03/07 05:15:40;;;;;;;7.30;6.70;;;4.20;23.80;;;;;;5052947;28;20263;-68
2021/03/07 05:18:06;;;;;;;7.63;6.87;;;4.20;23.90;;;;;;5052678;28;20187;-67
2021/03/07 05:20:33;;;;;;;8.03;7.23;;;4.20;23.80;;;;;;5052735;28;20438;-68
2021/03/07 05:22:59;;;;;;;6.97;6.33;;;3.90;23.70;;;;;;5057920;28;20556;-67
2021/03/07 05:25:24;;;;;;;7.30;6.60;;;3.60;23.60;;;;;;5063423;28;20521;-67
2021/03/07 05:27:50;;;;;;;6.80;6.20;;;3.30;24.60;;;;;;5052495;28;20275;-65
2021/03/07 05:30:16;;;;;;;8.60;6.70;;;3.40;24.30;;;;;;5052580;28;20172;-66
2021/03/07 05:32:41;;;;;;;7.57;6.83;;;3.40;24.30;;;;;;5052522;28;20257;-67
2021/03/07 05:35:08;;;;;;;8.50;7.57;;;3.40;24.30;;;;;;5052393;28;20823;-67
2021/03/07 05:37:33;;;;;;;6.63;6.03;;;3.60;23.90;;;;;;5052193;28;20275;-66
2021/03/07 05:39:59;;;;;;;6.83;6.27;;;3.90;23.80;;;;;;5051469;28;20525;-66
2021/03/07 05:42:24;;;;;;;7.50;6.80;;;4.10;23.50;;;;;;5052223;28;20204;-67
2021/03/07 05:44:50;;;;;;;8.97;7.63;;;4.20;24.30;;;;;;5051050;28;20187;-67
2021/03/07 05:47:17;;;;;;;9.00;8.00;;;4.50;23.70;;;;;;5052028;28;20319;-66
2021/03/07 05:49:42;;;;;;;8.97;8.20;;;4.30;24.10;;;;;;5052076;28;20184;-67
2021/03/07 05:52:08;;;;;;;7.90;7.20;;;4.50;24.20;;;;;;5052063;28;20836;-67
2021/03/07 05:54:34;;;;;;;9.90;7.67;;;4.60;24.10;;;;;;5052075;28;20655;-67
2021/03/07 05:57:01;;;;;;;7.40;6.70;;;4.60;24.00;;;;;;5051869;28;20504;-66
2021/03/07 05:59:30;;;;;;;8.13;7.33;;;4.70;23.90;;;;;;5054273;28;20426;-68
2021/03/07 06:01:56;;;;;;;8.80;7.00;;;4.60;24.10;;;;;;5053006;28;20504;-67
2021/03/07 06:04:22;;;;;;;7.90;7.10;;;4.60;23.10;;;;;;5061452;28;20822;-67
2021/03/07 06:06:47;;;;;;;7.87;7.17;;;4.60;23.50;;;;;;5065065;28;20420;-67
2021/03/07 06:09:27;;;;;;;8.43;7.63;;;4.40;23.50;;;;;;5063527;28;20179;-67
2021/03/07 06:11:54;;;;;;;8.40;7.60;;;4.30;23.60;;;;;;5071389;28;20199;-67
2021/03/07 06:14:27;;;;;;;7.70;7.00;;;3.90;24.10;;;;;;5071494;28;20408;-68
2021/03/07 06:17:29;;;;;;;9.07;8.27;;;3.50;24.60;;;;;;5062410;28;20417;-68
2021/03/07 06:20:00;;;;;;;9.47;8.30;;;3.60;25.20;;;;;;5061595;28;20451;-68
2021/03/07 06:22:27;;;;;;;8.60;7.67;;;3.90;25.00;;;;;;5071234;28;20445;-68
2021/03/07 06:24:53;;;;;;;8.57;7.67;;;4.10;24.30;;;;;;5071127;28;20405;-68
2021/03/07 06:27:19;;;;;;;8.27;7.57;;;4.20;24.10;;;;;;5071128;28;20401;-68
2021/03/07 06:30:01;;;;;;;8.40;7.60;;;4.20;23.90;;;;;;5071218;28;20202;-68
2021/03/07 06:32:29;;;;;;;9.03;7.87;;;4.10;23.90;;;;;;5070811;28;20500;-68
2021/03/07 06:34:56;;;;;;;8.80;7.83;;;4.00;23.70;;;;;;5071016;28;20413;-67
2021/03/07 06:37:22;;;;;;;10.30;9.30;;;3.90;24.10;;;;;;5070833;28;20409;-67
2021/03/07 06:39:48;;;;;;;9.30;8.50;;;3.90;24.10;;;;;;5070482;28;20512;-68
2021/03/07 06:42:14;;;;;;;9.70;8.10;;;3.90;23.70;;;;;;5070893;28;20556;-67
2021/03/07 06:44:58;;;;;;;10.00;9.00;;;4.00;23.90;;;;;;5070773;28;20406;-67
2021/03/07 06:47:25;;;;;;;9.10;8.20;;;3.90;23.90;;;;;;5069131;28;20829;-66
2021/03/07 06:50:13;;;;;;;9.00;8.20;;;4.20;24.30;;;;;;5069056;28;20410;-66
2021/03/07 06:52:53;;;;;;;8.30;7.50;;;4.40;24.70;;;;;;5054963;28;21013;-66
2021/03/07 06:55:21;;;;;;;7.47;6.80;;;4.20;23.70;;;;;;5054364;28;20446;-66
2021/03/07 06:57:47;;;;;;;8.40;7.60;;;4.30;24.80;;;;;;5067218;28;20414;-65
2021/03/07 07:00:13;;;;;;;9.07;8.17;;;4.30;24.40;;;;;;5068847;28;20471;-66
2021/03/07 07:02:39;;;;;;;9.60;7.83;;;4.40;24.60;;;;;;5054779;28;20237;-64
2021/03/07 07:05:05;;;;;;;9.67;8.70;;;4.50;24.00;;;;;;5048782;28;20857;-65
2021/03/07 07:07:30;;;;;;;11.37;7.83;;;4.50;23.00;;;;;;5050217;28;20160;-66
2021/03/07 07:10:05;;;;;;;9.23;8.30;;;4.40;23.60;;;;;;5050282;28;20407;-68
2021/03/07 07:12:31;;;;;;;10.67;8.20;;;4.50;23.40;;;;;;5049874;28;20699;-67
2021/03/07 07:15:11;;;;;;;8.97;7.77;;;4.60;23.40;;;;;;5048695;28;20407;-66
2021/03/07 07:17:37;;;;;;;11.77;9.30;;;4.50;22.90;;;;;;5048776;28;20179;-67
2021/03/07 07:20:05;;;;;;;8.17;7.47;;;4.60;23.20;;;;;;5048971;28;21003;-66
2021/03/07 07:22:33;;;;;;;9.47;8.53;;;4.60;23.00;;;;;;5049340;28;20284;-67
2021/03/07 07:24:59;;;;;;;9.20;8.40;;;4.60;23.40;;;;;;5049786;28;20418;-67
2021/03/07 07:27:24;;;;;;;9.43;8.63;;;4.40;23.60;;;;;;5049651;28;20417;-67
2021/03/07 07:29:50;;;;;;;10.90;9.80;;;4.40;23.60;;;;;;5050928;28;20188;-67
2021/03/07 07:32:22;;;;;;;10.57;9.57;;;4.40;23.70;;;;;;5059871;28;20234;-67
2021/03/07 07:34:55;;;;;;;9.87;8.93;;;4.40;23.80;;;;;;5060447;28;20184;-68
2021/03/07 07:37:29;;;;;;;9.30;8.50;;;4.30;23.80;;;;;;5065737;28;20462;-70
2021/03/07 07:39:57;;;;;;;9.07;8.10;;;4.30;24.00;;;;;;5049754;28;20541;-68
2021/03/07 07:42:31;;;;;;;9.67;8.60;;;4.30;24.10;;;;;;5051693;28;20548;-67
2021/03/07 07:45:14;;;;;;;9.00;8.20;;;4.50;23.90;;;;;;5054219;28;20503;-67
2021/03/07 07:47:48;;;;;;;12.33;8.57;;;4.70;23.50;;;;;;5055560;28;20422;-67
2021/03/07 07:50:29;;;;;;;8.73;7.97;;;4.70;23.80;;;;;;5059910;28;20450;-67
2021/03/07 07:52:59;;;;;;;10.43;8.37;;;5.10;23.80;;;;;;5061321;28;20457;-67
2021/03/07 07:55:46;;;;;;;9.73;8.70;;;5.10;22.80;;;;;;5054263;28;20426;-66
2021/03/07 07:58:34;;;;;;;10.13;9.17;;;5.10;23.00;;;;;;5057360;28;20407;-67
2021/03/07 08:01:01;;;;;;;8.13;7.40;;;5.20;22.80;;;;;;5069601;28;20429;-67
2021/03/07 08:03:43;;;;;;;9.70;8.80;;;5.40;22.80;;;;;;5063162;28;20462;-67
2021/03/07 08:06:11;;;;;;;9.30;8.50;;;5.40;22.90;;;;;;5059282;28;20485;-67
2021/03/07 08:08:41;;;;;;;10.10;9.10;;;5.60;22.80;;;;;;5053448;28;20758;-67
2021/03/07 08:11:26;;;;;;;9.10;8.20;;;5.60;22.50;;;;;;5053752;28;20963;-67
2021/03/07 08:13:55;;;;;;;9.07;8.17;;;5.60;22.60;;;;;;5053920;28;20412;-66
2021/03/07 08:16:44;;;;;;;9.60;8.60;;;5.50;22.60;;;;;;5053451;28;20406;-66
2021/03/07 08:19:21;;;;;;;13.50;9.83;;;5.50;23.30;;;;;;5053645;28;20411;-67
2021/03/07 08:21:59;;;;;;;10.00;8.67;;;5.60;22.70;;;;;;5053240;28;20940;-66
2021/03/07 08:24:57;;;;;;;11.20;9.10;;;5.80;22.80;;;;;;5053787;28;20847;-66
2021/03/07 08:27:40;;;;;;;10.77;9.67;;;5.90;22.70;;;;;;5052313;28;20789;-66
2021/03/07 08:30:08;;;;;;;9.90;8.90;;;5.90;22.70;;;;;;5053678;28;20560;-65
2021/03/07 08:32:38;;;;;;;9.43;8.57;;;5.80;22.70;;;;;;5053322;28;20526;-67
2021/03/07 08:35:10;;;;;;;10.47;9.10;;;5.90;23.00;;;;;;5053447;28;20407;-67
2021/03/07 08:37:36;;;;;;;12.33;8.00;;;5.60;22.90;;;;;;5052805;28;20552;-65
2021/03/07 08:40:33;;;;;;;9.50;8.67;;;5.50;23.80;;;;;;5061675;28;20955;-65
2021/03/07 08:43:20;;;;;;;12.07;9.07;;;5.70;22.90;;;;;;5067625;28;20457;-66
2021/03/07 08:46:10;;;;;;;10.00;9.10;;;5.70;23.00;;;;;;5072857;28;20441;-65
2021/03/07 08:48:37;;;;;;;9.90;9.10;;;5.90;23.00;;;;;;5068504;28;20497;-66
2021/03/07 08:51:04;;;;;;;10.60;9.60;;;6.00;22.70;;;;;;5052981;28;20503;-66
2021/03/07 08:53:33;;;;;;;9.50;8.70;;;6.10;22.70;;;;;;5052658;28;20440;-68
2021/03/07 08:55:59;;;;;;;10.90;9.47;;;6.30;22.60;;;;;;5052977;28;20409;-67
2021/03/07 08:58:25;;;;;;;9.87;8.97;;;6.40;22.80;;;;;;5052760;28;20399;-66
2021/03/07 09:00:53;;;;;;;10.37;9.47;;;6.30;22.10;;;;;;5052376;28;20426;-65
2021/03/07 09:03:20;;;;;;;9.80;8.90;;;6.40;22.30;;;;;;5051276;28;20537;-67
2021/03/07 09:05:47;;;;;;;9.50;8.67;;;6.50;22.80;;;;;;5052728;28;20775;-65
2021/03/07 09:08:13;;;;;;;11.80;10.67;;;6.40;22.10;;;;;;5050961;28;20415;-66
2021/03/07 09:10:47;;;;;;;11.00;9.90;;;6.60;22.10;;;;;;5052506;28;20504;-66
2021/03/07 09:13:25;;;;;;;10.70;9.70;;;6.70;21.90;;;;;;5052665;28;20492;-66
2021/03/07 09:16:02;;;;;;;12.83;9.60;;;6.90;22.00;;;;;;5051054;28;20485;-66
2021/03/07 09:18:39;;;;;;;10.13;9.23;;;7.00;21.40;;;;;;5052332;28;20417;-67
2021/03/07 09:21:05;;;;;;;12.10;9.27;;;7.10;21.40;;;;;;5052095;28;20473;-65
2021/03/07 09:23:43;;;;;;;9.93;8.87;;;7.00;21.50;;;;;;5052370;28;20489;-68
2021/03/07 09:26:17;;;;;;;12.70;9.83;;;6.90;21.90;;;;;;5052268;28;20429;-70
2021/03/07 09:28:47;;;;;;;11.90;9.77;;;6.80;22.00;;;;;;5051841;28;20398;-68
2021/03/07 09:31:23;;;;;;;10.77;9.70;;;7.10;22.10;;;;;;5052538;28;20430;-67
2021/03/07 09:33:57;;;;;;;10.83;9.73;;;7.20;21.90;;;;;;5052253;28;20782;-67
2021/03/07 09:36:24;;;;;;;10.70;9.73;;;7.40;22.30;;;;;;5051908;28;20406;-66
2021/03/07 09:38:58;;;;;;;11.13;10.10;;;7.40;21.30;;;;;;5051746;28;20461;-68
2021/03/07 09:41:30;;;;;;;10.10;9.20;;;7.10;22.10;;;;;;5052200;28;20473;-67
2021/03/07 09:43:58;;;;;;;10.90;9.77;;;7.00;22.00;;;;;;5052813;28;21001;-68
2021/03/07 09:46:25;;;;;;;9.83;9.03;;;7.20;22.20;;;;;;5052026;28;20398;-69
2021/03/07 09:48:54;;;;;;;9.50;8.60;;;7.20;22.70;;;;;;5065637;28;20423;-68
2021/03/07 09:51:20;;;;;;;17.13;15.23;;;7.20;22.20;;;;;;5070684;28;20921;-68
2021/03/07 09:53:46;;;;;;;12.43;11.33;;;7.40;22.00;;;;;;5054815;28;20418;-67
2021/03/07 09:56:40;;;;;;;14.27;12.77;;;7.50;21.90;;;;;;5051784;28;20197;-68
2021/03/07 09:59:19;;;;;;;10.37;9.37;;;7.80;22.10;;;;;;5063550;28;20219;-68
2021/03/07 10:01:46;;;;;;;11.53;10.43;;;7.70;21.30;;;;;;5071215;28;20437;-68
2021/03/07 10:04:33;;;;;;;19.37;17.37;;;7.50;22.40;;;;;;5068937;28;20951;-68
2021/03/07 10:07:21;;;;;;;9.97;9.10;;;7.90;21.90;;;;;;5060524;28;20459;-69
2021/03/07 10:10:03;;;;;;;11.47;10.27;;;7.90;21.30;;;;;;5051355;28;20429;-68
2021/03/07 10:12:42;;;;;;;10.93;9.93;;;8.10;21.10;;;;;;5055188;28;20894;-72
2021/03/07 10:15:10;;;;;;;11.20;9.30;;;8.10;21.10;;;;;;5069486;28;20481;-68
2021/03/07 10:17:38;;;;;;;10.33;9.43;;;8.10;21.40;;;;;;5058687;28;20422;-68
2021/03/07 10:20:05;;;;;;;10.57;9.40;;;8.30;20.90;;;;;;5068246;28;20496;-66
2021/03/07 10:22:44;;;;;;;11.03;9.93;;;8.10;21.20;;;;;;5064440;28;21002;-68
2021/03/07 10:25:21;;;;;;;11.60;10.50;;;8.30;21.20;;;;;;5056548;28;20490;-68
2021/03/07 10:28:08;;;;;;;12.03;10.63;;;8.40;21.00;;;;;;5060520;28;20422;-69
2021/03/07 10:30:40;;;;;;;11.57;10.47;;;8.50;21.60;;;;;;5051251;28;20822;-67
2021/03/07 10:33:10;;;;;;;11.77;10.57;;;8.20;21.30;;;;;;5050878;28;20429;-68
2021/03/07 10:35:37;;;;;;;11.07;9.87;;;8.40;21.00;;;;;;5060676;28;20944;-67
2021/03/07 10:38:02;;;;;;;11.67;10.50;;;8.60;21.20;;;;;;5056394;28;21147;-67
2021/03/07 10:40:33;;;;;;;12.00;10.87;;;8.70;21.80;;;;;;5050720;28;20576;-67
2021/03/07 10:43:04;;;;;;;12.30;11.20;;;8.80;20.90;;;;;;5050449;28;20575;-68
2021/03/07 10:45:30;;;;;;;12.37;11.10;;;8.90;22.00;;;;;;5050720;28;20414;-67
2021/03/07 10:48:04;;;;;;;11.37;10.23;;;8.90;20.90;;;;;;5055209;28;20504;-67
2021/03/07 10:50:30;;;;;;;14.00;10.50;;;8.90;20.50;;;;;;5070317;28;20447;-69
2021/03/07 10:52:56;;;;;;;12.70;11.03;;;8.80;21.60;;;;;;5070790;28;20606;-70
2021/03/07 10:55:23;;;;;;;12.90;11.57;;;8.90;21.40;;;;;;5070233;28;20179;-67
2021/03/07 10:57:48;;;;;;;11.13;10.10;;;9.10;21.00;;;;;;5068928;28;20471;-70
2021/03/07 11:00:14;;;;;;;12.40;11.20;;;9.10;22.10;;;;;;5069206;28;20414;-67
2021/03/07 11:02:45;;;;;;;13.60;11.23;;;9.30;21.50;;;;;;5070645;28;20206;-68
2021/03/07 11:05:15;;;;;;;11.53;10.53;;;9.30;21.20;;;;;;5070366;28;20501;-67
2021/03/07 11:07:42;;;;;;;11.90;10.80;;;9.30;21.50;;;;;;5070429;28;20434;-67
2021/03/07 11:10:09;;;;;;;12.10;11.00;;;9.60;21.20;;;;;;5070468;28;20492;-69
2021/03/07 11:12:36;;;;;;;12.03;10.83;;;9.60;20.10;;;;;;5056929;28;20426;-68
2021/03/07 11:15:06;;;;;;;11.90;10.80;;;9.70;20.40;;;;;;5050369;28;20484;-67
2021/03/07 11:17:32;;;;;;;11.97;10.37;;;9.90;20.00;;;;;;5050451;28;20461;-68
2021/03/07 11:19:58;;;;;;;11.70;10.70;;;10.10;18.80;;;;;;5050233;28;20406;-68
2021/03/07 11:22:24;;;;;;;12.83;11.73;;;10.30;18.40;;;;;;5050503;28;20800;-68
2021/03/07 11:24:49;;;;;;;13.50;12.17;;;10.50;18.50;;;;;;5050550;28;20589;-67
2021/03/07 11:27:15;;;;;;;12.63;11.30;;;10.70;18.50;;;;;;5050047;28;20406;-68
2021/03/07 11:29:40;;;;;;;12.17;11.17;;;10.90;18.10;;;;;;5050495;28;20176;-69
2021/03/07 11:32:06;;;;;;;12.77;11.67;;;11.00;17.70;;;;;;5050427;28;20200;-69
2021/03/07 11:34:32;;;;;;;11.63;10.53;;;10.80;17.60;;;;;;5056792;28;20179;-68
2021/03/07 11:36:57;;;;;;;11.47;10.40;;;11.00;17.70;;;;;;5069077;28;20220;-67
2021/03/07 11:39:23;;;;;;;11.30;10.30;;;11.30;17.30;;;;;;5057388;28;20586;-68
2021/03/07 11:41:49;;;;;;;12.20;11.10;;;11.40;17.30;;;;;;5053827;28;20345;-67
2021/03/07 11:44:14;;;;;;;11.10;10.00;;;11.60;16.90;;;;;;5054268;28;20164;-68
2021/03/07 11:46:40;;;;;;;11.77;10.70;;;11.60;16.00;;;;;;5054249;28;20172;-69
2021/03/07 11:49:06;;;;;;;12.27;11.07;;;11.40;16.60;;;;;;5053914;28;20265;-67
2021/03/07 11:51:31;;;;;;;11.20;10.10;;;11.50;16.90;;;;;;5060916;28;20203;-67
2021/03/07 11:53:57;;;;;;;12.60;10.67;;;11.70;16.80;;;;;;5074231;28;20646;-67
2021/03/07 11:56:22;;;;;;;11.03;10.13;;;11.80;16.60;;;;;;5073700;28;20219;-69
2021/03/07 11:58:48;;;;;;;11.23;10.13;;;12.00;15.60;;;;;;5073776;28;20175;-68
2021/03/07 12:01:14;;;;;;;11.00;9.50;;;12.10;15.70;;;;;;5073917;28;20198;-68
2021/03/07 12:03:39;;;;;;;11.33;10.37;;;12.30;15.10;;;;;;5073741;28;20231;-68
2021/03/07 12:06:05;;;;;;;11.43;10.33;;;12.60;14.50;;;;;;5073836;28;20706;-69
2021/03/07 12:08:30;;;;;;;11.40;10.40;;;12.70;14.20;;;;;;5073534;28;20171;-67
2021/03/07 12:10:56;;;;;;;12.60;10.67;;;12.80;14.00;;;;;;5073582;28;20233;-69
2021/03/07 12:13:21;;;;;;;10.03;9.13;;;12.70;15.10;;;;;;5073570;28;20174;-69
2021/03/07 12:15:47;;;;;;;12.80;11.60;;;12.30;14.40;;;;;;5074023;28;20175;-70
2021/03/07 12:18:12;;;;;;;12.00;10.90;;;12.30;15.40;;;;;;5073534;28;20176;-68
2021/03/07 12:20:38;;;;;;;11.47;10.37;;;12.10;14.90;;;;;;5068443;28;20203;-71
2021/03/07 12:23:03;;;;;;;13.57;10.93;;;11.90;15.20;;;;;;5070006;28;20247;-69
2021/03/07 12:25:29;;;;;;;11.97;10.87;;;11.70;15.30;;;;;;5071951;28;20187;-69
2021/03/07 12:27:54;;;;;;;11.00;10.10;;;11.70;16.10;;;;;;5063866;28;20175;-70
2021/03/07 12:30:20;;;;;;;10.40;9.43;;;11.60;16.00;;;;;;5065788;28;20817;-66
2021/03/07 12:32:46;;;;;;;12.20;11.13;;;11.40;15.90;;;;;;5064515;28;20244;-71
2021/03/07 12:35:12;;;;;;;11.67;10.67;;;11.20;15.90;;;;;;5073213;28;20502;-69
2021/03/07 12:37:37;;;;;;;11.60;10.50;;;11.20;15.70;;;;;;5073075;28;20205;-69
2021/03/07 12:40:04;;;;;;;11.07;10.07;;;11.30;15.90;;;;;;5073045;28;20433;-66
2021/03/07 12:42:30;;;;;;;11.83;10.63;;;11.00;16.10;;;;;;5071872;28;20207;-70
2021/03/07 12:44:57;;;;;;;12.53;11.47;;;10.90;16.10;;;;;;5068755;28;20424;-69
2021/03/07 12:47:23;;;;;;;14.90;13.43;;;10.90;16.00;;;;;;5066151;28;20206;-69
2021/03/07 12:49:49;;;;;;;12.67;11.53;;;11.00;16.40;;;;;;5052569;28;20413;-68
2021/03/07 12:52:14;;;;;;;11.50;10.30;;;11.10;16.30;;;;;;5054563;28;20214;-68
2021/03/07 12:54:40;;;;;;;11.70;10.60;;;11.00;16.30;;;;;;5072992;28;20224;-68
2021/03/07 12:57:06;;;;;;;11.93;10.87;;;11.00;16.60;;;;;;5059079;28;20187;-68